createdAt,value
2018-03-08T00:01:24.396Z,54.47
2018-03-08T00:03:51.897Z,54.00
2018-03-08T00:06:19.620Z,57.10
2018-03-08T00:08:47.215Z,52.80
2018-03-08T00:11:15.758Z,55.40
2018-03-08T00:13:43.255Z,55.97
2018-03-08T00:16:10.800Z,55.47
2018-03-08T00:18:38.348Z,54.80
2018-03-08T00:21:05.896Z,55.93
2018-03-08T00:23:33.411Z,57.13
2018-03-08T00:26:00.912Z,58.07
2018-03-08T00:28:28.567Z,56.67
2018-03-08T00:30:56.408Z,57.70
2018-03-08T00:33:24.100Z,55.83
2018-03-08T00:35:51.608Z,59.67
2018-03-08T00:38:19.192Z,60.70
2018-03-08T00:40:46.679Z,61.50
2018-03-08T00:43:14.189Z,60.63
2018-03-08T00:45:42.000Z,59.80
2018-03-08T00:48:09.781Z,62.10
2018-03-08T00:50:37.284Z,57.53
2018-03-08T00:53:05.008Z,59.67
2018-03-08T00:55:32.455Z,63.80
2018-03-08T00:58:00.071Z,65.83
2018-03-08T01:00:27.627Z,65.67
2018-03-08T01:02:55.415Z,63.37
2018-03-08T01:05:22.920Z,61.07
2018-03-08T01:07:50.455Z,64.43
2018-03-08T01:10:17.992Z,61.77
2018-03-08T01:12:45.508Z,65.40
2018-03-08T01:15:13.015Z,64.37
2018-03-08T01:17:40.528Z,67.30
2018-03-08T01:20:08.242Z,66.57
2018-03-08T01:22:35.764Z,59.23
2018-03-08T01:25:03.452Z,57.60
2018-03-08T01:27:31.561Z,58.00
2018-03-08T01:29:59.189Z,54.97
2018-03-08T01:32:26.683Z,53.63
2018-03-08T01:34:54.196Z,56.00
2018-03-08T01:37:21.699Z,57.87
2018-03-08T01:39:49.420Z,58.47
2018-03-08T01:42:16.919Z,62.30
2018-03-08T01:44:44.631Z,64.60
2018-03-08T01:47:12.135Z,60.77
2018-03-08T01:49:39.863Z,60.50
2018-03-08T01:52:12.183Z,61.40
2018-03-08T01:54:39.987Z,60.60
2018-03-08T01:57:08.335Z,65.20
2018-03-08T01:59:35.839Z,63.60
2018-03-08T02:02:03.951Z,62.47
2018-03-08T02:04:31.591Z,62.43
2018-03-08T02:06:59.115Z,62.97
2018-03-08T02:09:26.632Z,62.47
2018-03-08T02:11:54.308Z,64.87
2018-03-08T02:14:22.003Z,63.13
2018-03-08T02:16:49.512Z,67.70
2018-03-08T02:19:17.020Z,65.20
2018-03-08T02:21:44.533Z,67.40
2018-03-08T02:24:12.204Z,64.37
2018-03-08T02:26:39.708Z,67.60
2018-03-08T02:29:09.013Z,63.53
2018-03-08T02:31:36.783Z,67.40
2018-03-08T02:34:04.520Z,63.73
2018-03-08T02:36:32.012Z,66.20
2018-03-08T02:38:59.519Z,69.40
2018-03-08T02:41:27.192Z,67.67
2018-03-08T02:43:54.956Z,66.00
2018-03-08T02:46:22.461Z,63.37
2018-03-08T02:48:50.012Z,64.67
2018-03-08T02:51:18.288Z,63.17
2018-03-08T02:53:46.007Z,61.40
2018-03-08T02:56:13.549Z,63.17
2018-03-08T02:58:41.191Z,60.90
2018-03-08T03:01:08.989Z,58.57
2018-03-08T03:03:36.626Z,60.10
2018-03-08T03:06:04.131Z,60.53
2018-03-08T03:08:32.151Z,61.27
2018-03-08T03:10:59.659Z,60.53
2018-03-08T03:13:27.936Z,61.50
2018-03-08T03:15:55.576Z,67.33
2018-03-08T03:18:23.335Z,64.37
2018-03-08T03:20:51.079Z,64.30
2018-03-08T03:23:18.811Z,65.57
2018-03-08T03:25:46.324Z,66.50
2018-03-08T03:28:14.243Z,69.67
2018-03-08T03:30:41.757Z,73.43
2018-03-08T03:33:09.255Z,73.80
2018-03-08T03:35:37.065Z,74.60
2018-03-08T03:38:04.577Z,76.47
2018-03-08T03:40:32.079Z,73.40
2018-03-08T03:42:59.590Z,77.67
2018-03-08T03:45:27.863Z,70.57
2018-03-08T03:47:55.546Z,76.10
2018-03-08T03:50:23.339Z,72.47
2018-03-08T03:52:50.846Z,73.67
2018-03-08T03:55:18.559Z,69.57
2018-03-08T03:57:46.072Z,73.90
2018-03-08T04:00:13.800Z,76.27
2018-03-08T04:02:44.028Z,78.57
2018-03-08T04:05:11.740Z,73.73
2018-03-08T04:07:39.455Z,78.13
2018-03-08T04:10:07.727Z,79.87
2018-03-08T04:12:35.542Z,83.90
2018-03-08T04:15:03.040Z,82.87
2018-03-08T04:17:30.592Z,83.20
2018-03-08T04:19:58.098Z,76.73
2018-03-08T04:22:25.675Z,78.67
2018-03-08T04:24:53.132Z,74.57
2018-03-08T04:27:21.024Z,78.60
2018-03-08T04:29:48.803Z,76.07
2018-03-08T04:32:16.547Z,76.00
2018-03-08T04:34:44.047Z,74.10
2018-03-08T04:37:11.579Z,77.47
2018-03-08T04:39:39.200Z,75.70
2018-03-08T04:42:06.726Z,76.63
2018-03-08T04:44:34.456Z,75.33
2018-03-08T04:47:01.975Z,79.00
2018-03-08T04:49:29.641Z,80.83
2018-03-08T04:51:57.438Z,79.27
2018-03-08T04:54:24.940Z,78.93
2018-03-08T04:56:53.208Z,79.27
2018-03-08T04:59:20.724Z,77.67
2018-03-08T05:01:48.287Z,78.77
2018-03-08T05:04:15.783Z,75.37
2018-03-08T05:06:44.075Z,78.57
2018-03-08T05:09:11.587Z,77.20
2018-03-08T05:11:39.264Z,75.27
2018-03-08T05:14:06.768Z,73.40
2018-03-08T05:16:34.374Z,74.33
2018-03-08T05:19:01.928Z,77.07
2018-03-08T05:21:30.935Z,73.07
2018-03-08T05:23:58.451Z,73.37
2018-03-08T05:26:25.959Z,79.50
2018-03-08T05:28:54.241Z,80.80
2018-03-08T05:31:21.959Z,78.43
2018-03-08T05:33:49.474Z,78.97
2018-03-08T05:36:17.011Z,76.00
2018-03-08T05:38:45.279Z,78.50
2018-03-08T05:41:13.007Z,78.00
2018-03-08T05:43:40.775Z,79.87
2018-03-08T05:46:08.275Z,77.27
2018-03-08T05:48:35.829Z,78.53
2018-03-08T05:51:03.322Z,74.43
2018-03-08T05:53:30.815Z,76.07
2018-03-08T05:55:58.336Z,81.60
2018-03-08T05:58:25.834Z,78.50
2018-03-08T06:00:53.357Z,120.20
2018-03-08T06:03:20.863Z,110.73
2018-03-08T06:05:48.375Z,80.00
2018-03-08T06:08:16.097Z,78.73
2018-03-08T06:10:44.360Z,78.33
2018-03-08T06:13:11.887Z,76.90
2018-03-08T06:15:39.446Z,76.97
2018-03-08T06:18:07.323Z,75.90
2018-03-08T06:20:34.828Z,77.30
2018-03-08T06:23:02.331Z,72.83
2018-03-08T06:25:29.982Z,75.90
2018-03-08T06:27:57.472Z,75.87
2018-03-08T06:30:25.211Z,75.67
2018-03-08T06:32:52.744Z,75.90
2018-03-08T06:35:20.238Z,73.37
2018-03-08T06:37:47.904Z,76.00
2018-03-08T06:40:15.416Z,69.80
2018-03-08T06:42:42.919Z,71.53
2018-03-08T06:45:10.416Z,76.27
2018-03-08T06:47:37.920Z,71.53
2018-03-08T06:50:05.428Z,72.37
2018-03-08T06:52:32.936Z,72.70
2018-03-08T06:55:00.439Z,74.17
2018-03-08T06:57:28.164Z,72.00
2018-03-08T06:59:55.680Z,73.93
2018-03-08T07:02:23.384Z,68.27
2018-03-08T07:04:52.412Z,69.70
2018-03-08T07:07:19.920Z,67.80
2018-03-08T07:09:47.475Z,67.17
2018-03-08T07:12:15.728Z,59.53
2018-03-08T07:14:43.262Z,56.93
2018-03-08T07:17:11.752Z,52.20
2018-03-08T07:19:39.260Z,53.67
2018-03-08T07:22:06.824Z,54.70
2018-03-08T07:24:34.349Z,52.10
2018-03-08T07:27:01.887Z,50.33
2018-03-08T07:29:29.404Z,54.20
2018-03-08T07:31:56.939Z,51.17
2018-03-08T07:34:24.480Z,53.90
2018-03-08T07:36:51.975Z,55.50
2018-03-08T07:39:19.515Z,50.63
2018-03-08T07:41:47.024Z,49.23
2018-03-08T07:44:14.780Z,50.53
2018-03-08T07:46:42.296Z,49.67
2018-03-08T07:49:09.783Z,35.40
2018-03-08T07:51:37.295Z,42.10
2018-03-08T07:54:04.896Z,40.23
2018-03-08T07:56:32.615Z,45.13
2018-03-08T07:59:00.118Z,43.60
2018-03-08T08:01:27.847Z,40.97
2018-03-08T08:03:55.619Z,43.77
2018-03-08T08:06:35.086Z,34.27
2018-03-08T08:09:08.346Z,39.37
2018-03-08T08:11:35.860Z,38.77
2018-03-08T08:14:03.542Z,32.40
2018-03-08T08:16:31.082Z,29.10
2018-03-08T08:18:58.583Z,30.47
2018-03-08T08:21:26.119Z,27.37
2018-03-08T08:23:53.699Z,30.63
2018-03-08T08:26:21.210Z,26.70
2018-03-08T08:28:48.896Z,32.47
2018-03-08T08:31:16.804Z,33.33
2018-03-08T08:33:44.303Z,32.57
2018-03-08T08:36:11.944Z,26.93
2018-03-08T08:38:39.455Z,30.33
2018-03-08T08:41:07.138Z,23.20
2018-03-08T08:43:34.657Z,29.93
2018-03-08T08:46:02.171Z,31.03
2018-03-08T08:48:29.679Z,28.90
2018-03-08T08:50:57.184Z,27.17
2018-03-08T08:53:24.710Z,29.37
2018-03-08T08:55:52.475Z,28.57
2018-03-08T08:58:19.980Z,25.97
2018-03-08T09:00:47.696Z,26.07
2018-03-08T09:03:15.212Z,24.20
2018-03-08T09:05:42.712Z,20.43
2018-03-08T09:08:10.232Z,19.17
2018-03-08T09:10:37.791Z,22.40
2018-03-08T09:13:05.296Z,23.80
2018-03-08T09:15:33.051Z,23.40
2018-03-08T09:18:00.552Z,23.60
2018-03-08T09:20:28.280Z,24.27
2018-03-08T09:22:55.798Z,23.50
2018-03-08T09:25:23.491Z,25.10
2018-03-08T09:27:51.000Z,18.07
2018-03-08T09:30:18.674Z,24.43
2018-03-08T09:32:46.180Z,25.97
2018-03-08T09:35:13.685Z,25.80
2018-03-08T09:37:41.196Z,24.43
2018-03-08T09:40:08.692Z,25.17
2018-03-08T09:42:36.968Z,27.77
2018-03-08T09:45:04.472Z,29.43
2018-03-08T09:47:32.127Z,29.87
2018-03-08T09:49:59.896Z,31.70
2018-03-08T09:52:27.427Z,31.50
2018-03-08T09:54:55.128Z,31.67
2018-03-08T09:57:22.657Z,28.20
2018-03-08T09:59:50.312Z,32.83
2018-03-08T10:02:17.843Z,31.07
2018-03-08T10:04:45.352Z,35.70
2018-03-08T10:07:12.852Z,24.93
2018-03-08T10:09:41.140Z,34.87
2018-03-08T10:12:08.651Z,37.60
2018-03-08T10:14:36.181Z,34.10
2018-03-08T10:17:04.117Z,36.50
2018-03-08T10:19:31.859Z,34.90
2018-03-08T10:21:59.361Z,36.30
2018-03-08T10:24:26.868Z,34.03
2018-03-08T10:26:54.520Z,34.53
2018-03-08T10:29:23.527Z,34.50
2018-03-08T10:31:51.036Z,33.40
2018-03-08T10:34:18.728Z,24.33
2018-03-08T10:36:46.221Z,28.00
2018-03-08T10:44:08.953Z,25.20
2018-03-08T10:46:36.508Z,28.67
2018-03-08T10:49:04.387Z,31.57
2018-03-08T10:51:31.884Z,34.50
2018-03-08T10:53:59.400Z,29.77
2018-03-08T10:56:27.015Z,30.97
2018-03-08T10:58:54.529Z,31.80
2018-03-08T11:01:25.867Z,16.97
2018-03-08T11:03:55.159Z,28.57
2018-03-08T11:06:34.531Z,30.90
2018-03-08T11:09:02.803Z,29.67
2018-03-08T11:11:30.328Z,18.23
2018-03-08T11:13:57.980Z,28.20
2018-03-08T11:16:25.484Z,25.10
2018-03-08T11:18:53.210Z,26.00
2018-03-08T11:21:20.720Z,17.80
2018-03-08T11:23:48.227Z,27.50
2018-03-08T11:26:15.747Z,28.50
2018-03-08T11:28:43.299Z,27.77
2018-03-08T11:31:11.028Z,26.07
2018-03-08T11:33:38.539Z,27.57
2018-03-08T11:36:08.242Z,26.07
2018-03-08T11:38:35.934Z,25.33
2018-03-08T11:41:03.695Z,28.73
2018-03-08T11:43:31.196Z,28.37
2018-03-08T11:45:58.715Z,32.67
2018-03-08T11:48:26.375Z,29.50
2018-03-08T11:50:53.888Z,28.33
2018-03-08T11:53:21.388Z,27.37
2018-03-08T11:55:48.898Z,29.37
2018-03-08T11:58:17.167Z,23.30
2018-03-08T12:00:44.885Z,28.43
2018-03-08T12:03:12.648Z,28.77
2018-03-08T12:05:40.855Z,30.30
2018-03-08T12:08:09.123Z,27.13
2018-03-08T12:10:36.636Z,22.40
2018-03-08T12:13:04.318Z,24.33
2018-03-08T12:15:31.877Z,25.77
2018-03-08T12:17:59.618Z,20.60
2018-03-08T12:20:27.302Z,27.00
2018-03-08T12:22:55.077Z,21.50
2018-03-08T12:25:22.573Z,26.40
2018-03-08T12:27:50.110Z,24.67
2018-03-08T12:30:17.596Z,21.37
2018-03-08T12:32:45.112Z,22.47
2018-03-08T12:35:13.383Z,23.60
2018-03-08T12:37:41.187Z,25.00
2018-03-08T12:40:08.706Z,24.73
2018-03-08T12:42:36.222Z,24.60
2018-03-08T12:45:03.731Z,22.77
2018-03-08T12:47:31.545Z,22.90
2018-03-08T12:49:59.183Z,25.00
2018-03-08T12:52:26.703Z,23.50
2018-03-08T12:54:54.459Z,19.73
2018-03-08T12:57:22.227Z,20.07
2018-03-08T12:59:49.739Z,20.00
2018-03-08T13:02:17.440Z,18.40
2018-03-08T13:04:44.939Z,19.80
2018-03-08T13:07:12.632Z,20.27
2018-03-08T13:09:40.146Z,18.00
2018-03-08T13:12:07.696Z,19.57
2018-03-08T13:14:35.348Z,16.93
2018-03-08T13:17:02.851Z,17.47
2018-03-08T13:19:31.995Z,15.20
2018-03-08T13:22:00.320Z,15.13
2018-03-08T13:24:28.584Z,13.17
2018-03-08T13:26:56.898Z,13.53
2018-03-08T13:29:24.403Z,14.27
2018-03-08T13:31:51.906Z,13.77
2018-03-08T13:34:19.575Z,13.13
2018-03-08T13:39:20.345Z,12.50
2018-03-08T13:41:48.376Z,11.67
2018-03-08T13:44:15.879Z,12.23
2018-03-08T13:46:43.386Z,9.83
2018-03-08T13:49:22.706Z,11.00
2018-03-08T13:51:51.104Z,10.50
2018-03-08T13:54:18.633Z,9.37
2018-03-08T13:56:47.037Z,9.50
2018-03-08T13:59:14.547Z,9.57
2018-03-08T14:01:42.193Z,8.80
2018-03-08T14:04:09.696Z,9.50
2018-03-08T14:06:37.195Z,9.60
2018-03-08T14:09:04.694Z,10.03
2018-03-08T14:11:32.831Z,10.30
2018-03-08T14:14:00.399Z,9.60
2018-03-08T14:16:27.893Z,9.20
2018-03-08T14:18:55.615Z,9.80
2018-03-08T14:21:23.235Z,10.03
2018-03-08T14:23:50.960Z,9.10
2018-03-08T14:26:18.604Z,9.80
2018-03-08T14:28:46.112Z,9.43
2018-03-08T14:31:13.788Z,9.37
2018-03-08T14:33:41.295Z,9.63
2018-03-08T14:36:08.800Z,9.13
2018-03-08T14:38:36.295Z,8.70
2018-03-08T14:41:03.959Z,7.73
2018-03-08T14:43:31.489Z,7.50
2018-03-08T14:45:58.983Z,8.67
2018-03-08T14:48:26.632Z,8.80
2018-03-08T14:50:54.145Z,7.87
2018-03-08T14:53:21.848Z,8.87
2018-03-08T14:55:49.356Z,8.23
2018-03-08T14:58:16.863Z,9.50
2018-03-08T15:00:44.395Z,8.67
2018-03-08T15:03:11.984Z,7.87
2018-03-08T15:05:39.753Z,7.60
2018-03-08T15:08:07.261Z,7.07
2018-03-08T15:10:34.982Z,6.80
2018-03-08T15:13:02.488Z,6.90
2018-03-08T15:15:29.997Z,6.93
2018-03-08T15:17:57.643Z,6.13
2018-03-08T15:20:25.407Z,6.43
2018-03-08T15:22:53.179Z,6.00
2018-03-08T15:25:20.679Z,5.10
2018-03-08T15:27:48.186Z,5.67
2018-03-08T15:30:15.696Z,5.00
2018-03-08T15:32:43.960Z,5.90
2018-03-08T15:35:11.544Z,5.57
2018-03-08T15:37:40.065Z,5.23
2018-03-08T15:40:07.573Z,5.07
2018-03-08T15:42:35.067Z,5.23
2018-03-08T15:45:02.735Z,5.13
2018-03-08T15:47:30.568Z,5.90
2018-03-08T15:49:58.264Z,5.07
2018-03-08T15:52:25.768Z,5.23
2018-03-08T15:54:53.497Z,5.73
2018-03-08T15:57:21.252Z,5.33
2018-03-08T15:59:48.868Z,5.50
2018-03-08T16:02:30.916Z,7.07
2018-03-08T16:04:58.403Z,5.47
2018-03-08T16:10:33.532Z,5.83
2018-03-08T16:13:01.040Z,6.00
2018-03-08T16:15:28.551Z,5.27
2018-03-08T16:17:56.196Z,4.87
2018-03-08T16:20:23.960Z,5.07
2018-03-08T16:22:51.734Z,6.23
2018-03-08T16:25:19.239Z,5.40
2018-03-08T16:27:46.935Z,5.17
2018-03-08T16:30:14.431Z,4.70
2018-03-08T16:32:42.083Z,5.87
2018-03-08T16:35:09.620Z,6.97
2018-03-08T16:37:37.528Z,5.67
2018-03-08T16:40:06.600Z,4.30
2018-03-08T16:42:34.371Z,3.97
2018-03-08T16:45:01.859Z,4.50
2018-03-08T16:47:29.360Z,4.70
2018-03-08T16:49:56.893Z,5.37
2018-03-08T16:52:24.888Z,5.60
2018-03-08T16:54:52.402Z,7.20
2018-03-08T16:57:20.106Z,8.73
2018-03-08T16:59:47.867Z,3.97
2018-03-08T17:02:15.596Z,6.27
2018-03-08T17:04:43.100Z,6.70
2018-03-08T17:07:10.607Z,5.00
2018-03-08T17:09:38.705Z,10.40
2018-03-08T17:12:06.339Z,7.20
2018-03-08T17:14:33.863Z,4.33
2018-03-08T17:17:01.609Z,4.93
2018-03-08T17:19:29.365Z,4.53
2018-03-08T17:21:56.892Z,5.13
2018-03-08T17:24:24.379Z,4.83
2018-03-08T17:26:51.913Z,5.83
2018-03-08T17:29:19.407Z,5.43
2018-03-08T17:31:46.973Z,6.50
2018-03-08T17:34:14.483Z,6.03
2018-03-08T17:36:42.132Z,4.23
2018-03-08T17:39:09.931Z,2.50
2018-03-08T17:41:37.695Z,4.27
2018-03-08T17:44:06.232Z,3.60
2018-03-08T17:46:34.487Z,2.73
2018-03-08T17:49:01.998Z,2.83
2018-03-08T17:51:30.020Z,3.10
2018-03-08T17:53:58.541Z,3.30
2018-03-08T17:56:26.088Z,4.20
2018-03-08T17:58:53.583Z,4.00
2018-03-08T18:01:21.071Z,4.27
2018-03-08T18:03:48.572Z,5.00
2018-03-08T18:06:16.211Z,4.70
2018-03-08T18:08:43.725Z,5.03
2018-03-08T18:11:11.314Z,4.20
2018-03-08T18:13:39.579Z,5.83
2018-03-08T18:16:07.308Z,5.40
2018-03-08T18:18:34.795Z,5.67
2018-03-08T18:21:02.307Z,5.40
2018-03-08T18:23:30.025Z,7.93
2018-03-08T18:25:57.572Z,6.20
2018-03-08T18:28:25.071Z,6.53
2018-03-08T18:30:52.667Z,7.53
2018-03-08T18:33:20.168Z,7.43
2018-03-08T18:35:47.860Z,8.50
2018-03-08T18:38:15.371Z,7.10
2018-03-08T18:40:42.979Z,7.33
2018-03-08T18:43:10.475Z,8.43
2018-03-08T18:45:37.972Z,8.57
2018-03-08T18:48:05.474Z,8.27
2018-03-08T18:50:32.994Z,7.30
2018-03-08T18:53:00.713Z,8.30
2018-03-08T18:55:28.272Z,7.23
2018-03-08T18:57:55.768Z,8.37
2018-03-08T19:00:23.374Z,8.73
2018-03-08T19:02:50.883Z,8.30
2018-03-08T19:05:19.089Z,7.97
2018-03-08T19:07:46.975Z,7.90
2018-03-08T19:10:14.483Z,6.60
2018-03-08T19:12:42.003Z,7.63
2018-03-08T19:15:09.500Z,7.43
2018-03-08T19:17:37.120Z,7.10
2018-03-08T19:20:04.649Z,7.50
2018-03-08T19:22:32.326Z,7.20
2018-03-08T19:25:00.083Z,7.33
2018-03-08T19:27:27.642Z,8.10
2018-03-08T19:29:55.306Z,8.63
2018-03-08T19:32:22.808Z,10.43
2018-03-08T19:34:50.508Z,7.97
2018-03-08T19:37:18.316Z,8.07
2018-03-08T19:39:46.165Z,8.73
2018-03-08T19:42:13.661Z,9.13
2018-03-08T19:44:42.047Z,9.80
2018-03-08T19:47:09.652Z,8.07
2018-03-08T19:49:37.143Z,9.43
2018-03-08T19:52:04.655Z,9.43
2018-03-08T19:54:32.304Z,10.60
2018-03-08T19:56:59.831Z,14.40
2018-03-08T19:59:27.580Z,10.70
2018-03-08T20:01:55.312Z,8.00
2018-03-08T20:04:23.072Z,7.17
2018-03-08T20:06:50.710Z,6.50
2018-03-08T20:09:18.300Z,7.20
2018-03-08T20:11:45.849Z,6.27
2018-03-08T20:14:13.336Z,5.27
2018-03-08T20:16:40.958Z,6.80
2018-03-08T20:19:08.451Z,6.20
2018-03-08T20:21:36.190Z,6.10
2018-03-08T20:24:03.722Z,5.37
2018-03-08T20:26:31.409Z,4.73
2018-03-08T20:28:58.903Z,5.07
2018-03-08T20:31:26.408Z,4.27
2018-03-08T20:33:53.908Z,4.70
2018-03-08T20:36:21.401Z,4.20
2018-03-08T20:38:48.908Z,4.40
2018-03-08T20:41:16.456Z,3.70
2018-03-08T20:43:44.167Z,2.97
2018-03-08T20:46:11.659Z,4.07
2018-03-08T20:48:39.439Z,3.30
2018-03-08T20:51:06.931Z,3.20
2018-03-08T20:53:34.460Z,2.93
2018-03-08T20:56:01.961Z,2.77
2018-03-08T20:58:30.367Z,3.70
2018-03-08T21:00:57.906Z,3.43
2018-03-08T21:03:25.407Z,3.13
2018-03-08T21:05:52.890Z,2.70
2018-03-08T21:08:20.416Z,5.83
2018-03-08T21:10:48.104Z,2.20
2018-03-08T21:13:15.619Z,2.43
2018-03-08T21:15:43.108Z,2.10
2018-03-08T21:18:10.720Z,2.30
2018-03-08T21:20:38.215Z,3.07
2018-03-08T21:23:05.698Z,2.93
2018-03-08T21:25:33.207Z,2.23
2018-03-08T21:28:00.888Z,4.13
2018-03-08T21:30:28.387Z,2.50
2018-03-08T21:32:56.120Z,2.23
2018-03-08T21:35:24.063Z,2.60
2018-03-08T21:37:51.551Z,2.07
2018-03-08T21:40:19.083Z,2.80
2018-03-08T21:42:46.571Z,2.07
2018-03-08T21:45:14.084Z,2.20
2018-03-08T21:47:41.775Z,2.87
2018-03-08T21:50:09.276Z,2.33
2018-03-08T21:52:36.776Z,2.10
2018-03-08T21:55:04.335Z,2.70
2018-03-08T21:57:31.904Z,2.20
2018-03-08T21:59:59.668Z,2.97
2018-03-08T22:02:27.427Z,4.47
2018-03-08T22:04:55.195Z,4.80
2018-03-08T22:07:22.700Z,5.10
2018-03-08T22:09:50.422Z,4.67
2018-03-08T22:12:17.900Z,4.83
2018-03-08T22:14:45.641Z,5.60
2018-03-08T22:17:13.127Z,4.67
2018-03-08T22:19:40.619Z,4.70
2018-03-08T22:22:08.324Z,5.47
2018-03-08T22:24:35.824Z,3.83
2018-03-08T22:27:03.540Z,5.77
2018-03-08T22:29:31.244Z,5.27
2018-03-08T22:31:58.752Z,5.00
2018-03-08T22:34:26.244Z,4.87
2018-03-08T22:36:54.666Z,6.30
2018-03-08T22:39:22.154Z,5.70
2018-03-08T22:41:49.766Z,6.57
2018-03-08T22:44:17.264Z,4.70
2018-03-08T22:46:44.755Z,5.97
2018-03-08T22:49:12.480Z,7.00
2018-03-08T22:51:39.979Z,6.90
2018-03-08T22:54:07.708Z,7.47
2018-03-08T22:56:35.248Z,6.10
2018-03-08T22:59:02.932Z,7.63
2018-03-08T23:04:51.325Z,6.93
2018-03-08T23:07:18.900Z,7.10
2018-03-08T23:09:47.176Z,7.30
2018-03-08T23:12:15.503Z,8.70
2018-03-08T23:14:42.996Z,10.23
2018-03-08T23:17:10.507Z,8.77
2018-03-08T23:19:38.180Z,11.97
2018-03-08T23:22:05.687Z,11.77
2018-03-08T23:24:33.212Z,10.90
2018-03-08T23:27:00.788Z,11.10
2018-03-08T23:29:28.328Z,12.47
2018-03-08T23:31:55.828Z,10.03
2018-03-08T23:34:23.335Z,12.93
2018-03-08T23:36:50.848Z,13.30
2018-03-08T23:39:18.374Z,15.13
2018-03-08T23:41:45.876Z,12.33
2018-03-08T23:44:13.400Z,12.83
2018-03-08T23:46:40.944Z,12.57
2018-03-08T23:49:08.521Z,12.40
2018-03-08T23:51:36.015Z,15.00
2018-03-08T23:54:04.352Z,13.67
2018-03-08T23:56:31.863Z,16.57
2018-03-08T23:58:59.375Z,15.03
